Time;durP1;ratioP1;P1;durP2;ratioP2;P2;SDS_P1;SDS_P2;PMS_P1;PMS_P2;Temp;Humidity;BMP_temperature;BMP_pressure;BME280_temperature;BME280_humidity;BME280_pressure;Samples;Min_cycle;Max_cycle;Signal;HPM_P1;HPM_P2
2021/09/16 07:02:41;;;;;;;27.10;18.38;;;;;;;;;;5419929;23;20427;-59
2021/09/16 07:05:07;;;;;;;24.80;17.67;;;;;;;;;;4950104;28;20412;-53
2021/09/16 07:07:34;;;;;;;26.25;17.65;;;;;;;;;;4969119;28;20380;-55
2021/09/16 07:10:00;;;;;;;25.37;16.80;;;;;;;;;;4969113;28;20752;-55
2021/09/16 07:12:26;;;;;;;24.00;17.37;;;;;;;;;;4969312;28;20399;-50
2021/09/16 07:14:52;;;;;;;23.10;16.77;;;;;;;;;;4952150;28;20907;-60
2021/09/16 07:17:20;;;;;;;26.83;18.50;;;;;;;;;;4968994;28;20416;-60
2021/09/16 07:19:46;;;;;;;26.77;18.43;;;;;;;;;;4968625;28;20388;-57
2021/09/16 07:22:12;;;;;;;26.03;18.60;;;;;;;;;;4951755;28;20400;-56
2021/09/16 07:24:38;;;;;;;27.50;18.63;;;;;;;;;;4963624;28;20397;-58
2021/09/16 07:27:04;;;;;;;25.33;18.92;;;;;;;;;;4969372;28;20389;-57
2021/09/16 07:29:30;;;;;;;27.63;19.42;;;;;;;;;;4968811;28;20383;-53
2021/09/16 07:31:57;;;;;;;26.75;19.48;;;;;;;;;;4969026;28;20408;-60
2021/09/16 07:34:23;;;;;;;25.85;19.17;;;;;;;;;;4968781;28;20806;-57
2021/09/16 07:36:49;;;;;;;28.33;19.42;;;;;;;;;;4951099;28;20499;-55
2021/09/16 07:39:16;;;;;;;27.02;19.30;;;;;;;;;;4968549;28;20443;-49
2021/09/16 07:41:42;;;;;;;27.52;19.58;;;;;;;;;;4951962;28;20679;-60
2021/09/16 07:44:09;;;;;;;27.05;18.98;;;;;;;;;;4969226;28;20507;-58
2021/09/16 07:46:35;;;;;;;26.25;19.35;;;;;;;;;;4951720;28;20455;-54
2021/09/16 07:49:01;;;;;;;27.50;19.48;;;;;;;;;;4969032;28;20447;-51
2021/09/16 07:51:27;;;;;;;28.13;19.92;;;;;;;;;;4968676;28;20406;-56
2021/09/16 07:53:53;;;;;;;25.35;18.55;;;;;;;;;;4969260;28;20383;-61
2021/09/16 07:56:20;;;;;;;25.55;18.35;;;;;;;;;;4969120;28;20498;-57
2021/09/16 07:58:46;;;;;;;26.00;19.50;;;;;;;;;;4951139;28;20396;-55
2021/09/16 08:01:12;;;;;;;28.30;20.00;;;;;;;;;;4951741;28;20396;-54
2021/09/16 08:03:39;;;;;;;26.50;18.80;;;;;;;;;;4969186;28;20419;-55
2021/09/16 08:06:05;;;;;;;27.90;19.60;;;;;;;;;;4952028;28;20722;-59
2021/09/16 08:08:31;;;;;;;26.50;18.83;;;;;;;;;;4969465;28;20369;-57
2021/09/16 08:10:57;;;;;;;26.30;18.73;;;;;;;;;;4951457;28;20895;-57
2021/09/16 08:13:24;;;;;;;26.30;18.52;;;;;;;;;;4969920;28;20475;-55
2021/09/16 08:15:50;;;;;;;25.70;18.90;;;;;;;;;;4951832;28;20530;-57
2021/09/16 08:18:17;;;;;;;24.92;17.20;;;;;;;;;;4971749;28;20384;-57
2021/09/16 08:20:47;;;;;;;24.83;17.88;;;;;;;;;;4973815;28;20380;-54
2021/09/16 08:23:13;;;;;;;22.52;17.15;;;;;;;;;;4972633;28;20492;-59
2021/09/16 08:25:39;;;;;;;24.40;17.55;;;;;;;;;;4960902;28;20471;-57
2021/09/16 08:28:05;;;;;;;22.58;16.40;;;;;;;;;;4972403;28;20932;-58
2021/09/16 08:30:31;;;;;;;24.27;16.77;;;;;;;;;;4972692;28;20376;-56
2021/09/16 08:32:57;;;;;;;22.20;16.17;;;;;;;;;;4954626;28;20400;-59
2021/09/16 08:35:24;;;;;;;22.45;16.38;;;;;;;;;;4972413;28;20420;-55
2021/09/16 08:37:50;;;;;;;21.52;16.00;;;;;;;;;;4972844;28;20845;-58
2021/09/16 08:40:16;;;;;;;20.90;15.88;;;;;;;;;;4972481;28;20373;-59
2021/09/16 08:42:43;;;;;;;21.23;16.02;;;;;;;;;;4955157;28;20813;-53
2021/09/16 08:45:15;;;;;;;21.40;15.23;;;;;;;;;;4954250;28;20402;-57
2021/09/16 08:47:44;;;;;;;20.73;15.55;;;;;;;;;;4971919;28;20403;-58
2021/09/16 08:50:11;;;;;;;19.40;14.90;;;;;;;;;;4954286;28;20377;-60
2021/09/16 08:52:45;;;;;;;19.65;14.40;;;;;;;;;;4972573;28;20442;-59
2021/09/16 08:55:12;;;;;;;18.60;13.98;;;;;;;;;;4971101;28;20431;-56
2021/09/16 08:57:40;;;;;;;19.67;14.37;;;;;;;;;;4954829;28;20392;-58
2021/09/16 09:00:08;;;;;;;18.63;14.13;;;;;;;;;;4971815;28;20508;-53
2021/09/16 09:02:35;;;;;;;17.57;13.80;;;;;;;;;;4953970;28;20416;-58
2021/09/16 09:05:01;;;;;;;17.90;13.65;;;;;;;;;;4971995;28;20448;-59
2021/09/16 09:07:37;;;;;;;16.87;13.07;;;;;;;;;;4971113;28;20399;-53
2021/09/16 09:10:04;;;;;;;17.00;12.70;;;;;;;;;;4971768;28;20847;-50
2021/09/16 09:12:34;;;;;;;16.75;12.50;;;;;;;;;;4972361;28;20408;-51
2021/09/16 09:15:00;;;;;;;16.23;12.95;;;;;;;;;;4954413;28;20512;-56
2021/09/16 09:17:31;;;;;;;15.38;12.38;;;;;;;;;;4961472;28;20839;-57
2021/09/16 09:20:05;;;;;;;15.48;12.13;;;;;;;;;;4952034;28;20389;-56
2021/09/16 09:22:33;;;;;;;15.13;12.23;;;;;;;;;;4953645;28;20467;-57
2021/09/16 09:25:04;;;;;;;14.77;12.30;;;;;;;;;;4964471;28;20528;-60
2021/09/16 09:27:32;;;;;;;14.35;11.63;;;;;;;;;;4971389;28;20487;-57
2021/09/16 09:30:11;;;;;;;14.20;11.52;;;;;;;;;;4968398;28;20388;-59
2021/09/16 09:32:48;;;;;;;15.73;12.37;;;;;;;;;;4951936;28;20479;-60
2021/09/16 09:35:43;;;;;;;16.00;12.98;;;;;;;;;;4971463;28;20424;-58
2021/09/16 09:38:18;;;;;;;16.65;13.63;;;;;;;;;;4945827;28;20392;-59
2021/09/16 09:40:46;;;;;;;16.08;13.00;;;;;;;;;;4971233;28;20385;-58
2021/09/16 09:43:22;;;;;;;15.32;12.77;;;;;;;;;;4953546;28;20458;-62
2021/09/16 09:46:07;;;;;;;15.23;12.43;;;;;;;;;;4971142;28;20405;-58
2021/09/16 09:48:34;;;;;;;13.57;11.27;;;;;;;;;;4970945;28;20479;-59
2021/09/16 09:51:00;;;;;;;13.25;11.10;;;;;;;;;;4953289;28;20462;-59
2021/09/16 09:53:26;;;;;;;13.43;11.10;;;;;;;;;;4971024;28;20455;-59
2021/09/16 09:55:53;;;;;;;13.27;10.88;;;;;;;;;;4970871;28;20876;-60
2021/09/16 09:58:32;;;;;;;12.70;10.80;;;;;;;;;;4971304;28;20809;-59
2021/09/16 10:00:58;;;;;;;12.73;10.98;;;;;;;;;;4970011;28;20396;-59
2021/09/16 10:03:29;;;;;;;12.13;10.27;;;;;;;;;;4970834;28;20924;-58
2021/09/16 10:05:55;;;;;;;11.47;9.90;;;;;;;;;;4970399;28;20407;-60
2021/09/16 10:08:21;;;;;;;11.73;9.82;;;;;;;;;;4970518;28;20377;-60
2021/09/16 10:10:51;;;;;;;11.05;9.70;;;;;;;;;;4970957;28;20436;-60
2021/09/16 10:13:18;;;;;;;11.95;9.63;;;;;;;;;;4953434;28;20471;-60
2021/09/16 10:15:44;;;;;;;11.93;9.57;;;;;;;;;;4952679;28;20976;-59
2021/09/16 10:18:11;;;;;;;10.57;9.40;;;;;;;;;;4953161;28;20482;-60
2021/09/16 10:20:37;;;;;;;11.32;9.45;;;;;;;;;;4971094;28;20384;-59
2021/09/16 10:23:05;;;;;;;9.93;8.93;;;;;;;;;;4970042;28;20382;-64
2021/09/16 10:25:31;;;;;;;9.85;8.70;;;;;;;;;;4948004;28;20415;-60
2021/09/16 10:27:57;;;;;;;9.98;8.95;;;;;;;;;;4940550;29;20417;-61
2021/09/16 10:30:23;;;;;;;10.25;8.57;;;;;;;;;;4966579;28;20424;-61
2021/09/16 10:33:08;;;;;;;9.95;8.50;;;;;;;;;;4966220;28;20400;-62
2021/09/16 10:35:39;;;;;;;10.05;8.98;;;;;;;;;;4968210;28;20415;-61
2021/09/16 10:38:23;;;;;;;9.73;8.35;;;;;;;;;;4969424;28;20415;-61
2021/09/16 10:41:09;;;;;;;8.90;7.95;;;;;;;;;;4961844;28;20411;-61
2021/09/16 10:43:35;;;;;;;9.40;8.40;;;;;;;;;;4959100;28;20467;-61
2021/09/16 10:46:21;;;;;;;8.60;7.70;;;;;;;;;;4969257;28;20401;-61
2021/09/16 10:48:47;;;;;;;9.82;8.43;;;;;;;;;;4968822;28;20368;-61
2021/09/16 10:51:13;;;;;;;8.98;8.00;;;;;;;;;;4952392;28;20396;-62
2021/09/16 10:53:44;;;;;;;8.85;7.93;;;;;;;;;;4971118;28;20403;-61
2021/09/16 10:56:40;;;;;;;9.43;8.00;;;;;;;;;;4952186;28;20428;-61
2021/09/16 10:59:06;;;;;;;9.45;8.00;;;;;;;;;;4939219;28;20878;-62
2021/09/16 11:01:51;;;;;;;9.30;7.80;;;;;;;;;;4969953;28;20482;-61
2021/09/16 11:04:21;;;;;;;8.43;7.53;;;;;;;;;;4952278;28;20420;-61
2021/09/16 11:06:48;;;;;;;8.60;7.70;;;;;;;;;;4969810;28;20928;-60
2021/09/16 11:09:23;;;;;;;8.43;7.53;;;;;;;;;;4951730;28;20436;-60
2021/09/16 11:12:07;;;;;;;9.00;7.00;;;;;;;;;;4969763;28;20412;-60
2021/09/16 11:14:40;;;;;;;8.75;7.43;;;;;;;;;;4969135;28;20456;-60
2021/09/16 11:17:07;;;;;;;8.90;7.60;;;;;;;;;;4952209;28;20766;-60
2021/09/16 11:19:33;;;;;;;8.02;7.22;;;;;;;;;;4969295;28;20373;-59
2021/09/16 11:22:01;;;;;;;7.88;7.03;;;;;;;;;;4968748;28;20793;-59
2021/09/16 11:24:31;;;;;;;8.02;7.18;;;;;;;;;;4970465;28;20499;-60
2021/09/16 11:26:57;;;;;;;8.15;7.30;;;;;;;;;;4969190;28;20597;-59
2021/09/16 11:29:23;;;;;;;8.20;6.90;;;;;;;;;;4969779;28;20845;-60
2021/09/16 11:31:49;;;;;;;8.00;7.17;;;;;;;;;;4969591;28;20398;-60
2021/09/16 11:34:18;;;;;;;7.65;6.63;;;;;;;;;;4965681;28;20401;-60
2021/09/16 11:37:02;;;;;;;7.72;6.93;;;;;;;;;;4967926;28;20961;-60
2021/09/16 11:39:29;;;;;;;7.57;6.75;;;;;;;;;;4964313;28;20382;-61
2021/09/16 11:42:15;;;;;;;7.78;6.97;;;;;;;;;;4951866;28;20433;-60
2021/09/16 11:44:56;;;;;;;8.43;6.88;;;;;;;;;;4957787;28;20515;-61
2021/09/16 11:47:22;;;;;;;7.70;6.68;;;;;;;;;;4969701;28;20424;-60
2021/09/16 11:49:48;;;;;;;7.38;6.65;;;;;;;;;;4969436;28;20392;-61
2021/09/16 11:52:20;;;;;;;7.53;6.80;;;;;;;;;;4971506;28;20384;-61
2021/09/16 11:55:03;;;;;;;7.65;6.85;;;;;;;;;;4955656;28;20416;-61
2021/09/16 11:57:29;;;;;;;7.40;6.65;;;;;;;;;;4972695;28;20395;-61
2021/09/16 11:59:58;;;;;;;7.10;6.35;;;;;;;;;;4972831;28;20388;-59
2021/09/16 12:02:24;;;;;;;7.25;6.55;;;;;;;;;;4960752;28;20411;-60
2021/09/16 12:04:50;;;;;;;7.97;6.68;;;;;;;;;;4959931;28;20381;-62
2021/09/16 12:07:17;;;;;;;8.55;7.25;;;;;;;;;;4955299;28;20919;-59
2021/09/16 12:09:43;;;;;;;7.85;6.95;;;;;;;;;;4971908;28;20471;-59
2021/09/16 12:12:09;;;;;;;8.90;7.60;;;;;;;;;;4972869;28;20406;-59
2021/09/16 12:14:38;;;;;;;9.38;8.38;;;;;;;;;;4954915;28;20404;-59
2021/09/16 12:17:05;;;;;;;8.75;7.70;;;;;;;;;;4954791;28;20396;-58
2021/09/16 12:19:31;;;;;;;8.50;7.57;;;;;;;;;;4972077;28;20439;-58
2021/09/16 12:21:58;;;;;;;8.65;7.60;;;;;;;;;;4972408;28;20408;-57
2021/09/16 12:24:30;;;;;;;8.55;7.57;;;;;;;;;;4953001;28;20471;-58
2021/09/16 12:26:57;;;;;;;9.43;7.65;;;;;;;;;;4953374;28;21152;-59
2021/09/16 12:29:28;;;;;;;9.65;7.78;;;;;;;;;;4970232;28;20410;-56
2021/09/16 12:32:05;;;;;;;9.73;7.93;;;;;;;;;;4959326;28;20400;-58
2021/09/16 12:34:32;;;;;;;9.13;8.05;;;;;;;;;;4971476;28;20706;-58
2021/09/16 12:37:14;;;;;;;9.18;7.75;;;;;;;;;;4954208;28;20392;-55
2021/09/16 12:39:44;;;;;;;9.07;8.13;;;;;;;;;;4959786;28;20896;-60
2021/09/16 12:42:14;;;;;;;9.50;7.82;;;;;;;;;;4954850;28;20431;-59
2021/09/16 12:44:40;;;;;;;9.20;8.15;;;;;;;;;;4972759;28;20403;-60
2021/09/16 12:47:11;;;;;;;8.88;7.90;;;;;;;;;;4973955;28;20530;-54
2021/09/16 12:49:38;;;;;;;9.75;8.15;;;;;;;;;;4955180;28;20393;-53
2021/09/16 12:52:09;;;;;;;8.23;7.40;;;;;;;;;;4954268;28;20392;-58
2021/09/16 12:54:36;;;;;;;8.23;7.25;;;;;;;;;;4972605;28;20496;-59
2021/09/16 12:57:03;;;;;;;8.93;6.90;;;;;;;;;;4953632;28;20408;-55
2021/09/16 12:59:30;;;;;;;7.97;7.18;;;;;;;;;;4953961;28;20799;-56
2021/09/16 13:02:15;;;;;;;7.72;6.93;;;;;;;;;;4971411;28;20867;-50
2021/09/16 13:04:53;;;;;;;9.98;7.70;;;;;;;;;;4969882;28;20420;-57
2021/09/16 13:07:23;;;;;;;9.23;7.95;;;;;;;;;;4959296;28;20851;-60
2021/09/16 13:09:50;;;;;;;10.43;7.40;;;;;;;;;;4952819;28;20432;-60
2021/09/16 13:12:17;;;;;;;9.25;7.38;;;;;;;;;;4943039;28;20476;-55
2021/09/16 13:14:43;;;;;;;9.30;6.90;;;;;;;;;;4952751;28;20385;-66
2021/09/16 13:17:10;;;;;;;8.25;7.03;;;;;;;;;;4960824;28;20380;-60
2021/09/16 13:19:36;;;;;;;8.45;6.53;;;;;;;;;;4971735;28;20892;-59
2021/09/16 13:22:03;;;;;;;8.43;6.82;;;;;;;;;;4963262;28;20417;-59
2021/09/16 13:24:29;;;;;;;9.48;6.95;;;;;;;;;;4957042;28;20888;-60
2021/09/16 13:26:55;;;;;;;8.02;6.65;;;;;;;;;;4953517;28;20412;-60
2021/09/16 13:29:22;;;;;;;8.70;6.75;;;;;;;;;;4954327;28;20384;-59
2021/09/16 13:31:48;;;;;;;7.27;6.57;;;;;;;;;;4950023;28;20438;-61
2021/09/16 13:34:14;;;;;;;7.77;6.50;;;;;;;;;;4947232;28;20853;-56
2021/09/16 13:36:40;;;;;;;7.13;6.43;;;;;;;;;;4968379;28;20423;-58
2021/09/16 13:39:09;;;;;;;7.88;6.22;;;;;;;;;;4954121;28;20796;-58
2021/09/16 13:41:36;;;;;;;8.13;6.27;;;;;;;;;;4952534;28;20435;-59
2021/09/16 13:44:02;;;;;;;7.10;6.40;;;;;;;;;;4968711;28;20710;-58
2021/09/16 13:46:28;;;;;;;8.05;6.78;;;;;;;;;;4970043;28;20991;-59
2021/09/16 13:48:54;;;;;;;7.43;6.43;;;;;;;;;;4959638;28;20399;-60
2021/09/16 13:51:20;;;;;;;7.88;6.50;;;;;;;;;;4965615;28;20539;-61
2021/09/16 13:53:46;;;;;;;7.60;6.60;;;;;;;;;;4971135;28;20467;-60
2021/09/16 13:56:13;;;;;;;7.70;6.77;;;;;;;;;;4972188;28;20434;-61
2021/09/16 13:58:39;;;;;;;7.30;6.20;;;;;;;;;;4969544;28;20889;-60
2021/09/16 14:01:05;;;;;;;6.80;6.10;;;;;;;;;;4971249;28;20443;-62
2021/09/16 14:03:31;;;;;;;7.17;6.40;;;;;;;;;;4953147;28;20564;-66
2021/09/16 14:05:58;;;;;;;6.93;6.23;;;;;;;;;;4949645;28;20396;-59
2021/09/16 14:08:24;;;;;;;7.33;6.17;;;;;;;;;;4971085;28;20377;-59
2021/09/16 14:10:50;;;;;;;6.50;5.90;;;;;;;;;;4970727;28;20392;-54
2021/09/16 14:13:16;;;;;;;6.33;5.70;;;;;;;;;;4971844;28;20389;-51
2021/09/16 14:15:42;;;;;;;6.60;5.90;;;;;;;;;;4952174;28;20428;-58
2021/09/16 14:18:08;;;;;;;6.18;5.57;;;;;;;;;;4948754;28;20746;-55
2021/09/16 14:20:34;;;;;;;6.70;5.68;;;;;;;;;;4958232;28;20411;-54
2021/09/16 14:23:01;;;;;;;6.53;5.72;;;;;;;;;;4952781;28;20857;-49
2021/09/16 14:25:27;;;;;;;6.25;5.65;;;;;;;;;;4968991;28;20838;-49
2021/09/16 14:27:53;;;;;;;6.80;6.00;;;;;;;;;;4955647;28;20398;-52
2021/09/16 14:30:19;;;;;;;5.75;5.03;;;;;;;;;;4967813;28;20439;-54
2021/09/16 14:32:45;;;;;;;5.22;4.72;;;;;;;;;;4969980;28;20764;-54
2021/09/16 14:35:11;;;;;;;9.20;4.82;;;;;;;;;;4969801;28;20416;-58
2021/09/16 14:37:38;;;;;;;5.10;4.47;;;;;;;;;;4965295;28;20427;-51
2021/09/16 14:40:05;;;;;;;5.15;4.65;;;;;;;;;;4952986;28;20389;-52
2021/09/16 14:42:31;;;;;;;4.97;4.28;;;;;;;;;;4952949;28;20866;-46
2021/09/16 14:44:57;;;;;;;5.50;4.07;;;;;;;;;;4952998;28;20392;-47
2021/09/16 14:47:23;;;;;;;4.90;4.20;;;;;;;;;;4970321;28;20770;-47
2021/09/16 14:49:50;;;;;;;4.53;4.10;;;;;;;;;;4952069;28;20380;-58
2021/09/16 14:52:16;;;;;;;4.40;4.00;;;;;;;;;;4970503;28;20854;-48
2021/09/16 14:54:42;;;;;;;4.63;4.18;;;;;;;;;;4970453;28;20487;-50
2021/09/16 14:57:08;;;;;;;4.70;3.97;;;;;;;;;;4968269;28;20406;-48
2021/09/16 14:59:34;;;;;;;4.95;3.85;;;;;;;;;;4970531;28;20393;-50
2021/09/16 15:02:01;;;;;;;4.22;3.80;;;;;;;;;;4947203;28;20442;-49
2021/09/16 15:04:27;;;;;;;4.28;3.88;;;;;;;;;;4949786;28;20428;-52
2021/09/16 15:06:53;;;;;;;4.65;3.67;;;;;;;;;;4951916;28;20404;-49
2021/09/16 15:09:20;;;;;;;4.38;3.72;;;;;;;;;;4946679;29;20454;-51
2021/09/16 15:11:46;;;;;;;4.30;3.90;;;;;;;;;;4965470;28;20390;-49
2021/09/16 15:14:12;;;;;;;6.82;4.30;;;;;;;;;;4964970;28;20411;-48
2021/09/16 15:16:38;;;;;;;5.47;4.40;;;;;;;;;;4968706;28;20515;-49
2021/09/16 15:19:04;;;;;;;6.45;3.95;;;;;;;;;;4951256;28;20404;-48
2021/09/16 15:21:31;;;;;;;6.03;4.00;;;;;;;;;;4947850;29;20564;-48
2021/09/16 15:23:57;;;;;;;5.68;4.25;;;;;;;;;;4963656;28;20464;-47
2021/09/16 15:26:23;;;;;;;4.80;4.30;;;;;;;;;;4950436;28;20419;-47
2021/09/16 15:28:50;;;;;;;6.57;4.00;;;;;;;;;;4940470;29;20429;-48
2021/09/16 15:31:17;;;;;;;6.18;4.47;;;;;;;;;;4965201;28;20451;-53
2021/09/16 15:33:43;;;;;;;6.00;4.30;;;;;;;;;;4945411;28;20433;-51
2021/09/16 15:36:09;;;;;;;5.72;4.00;;;;;;;;;;4968556;28;20435;-49
2021/09/16 15:38:35;;;;;;;4.47;4.07;;;;;;;;;;4968865;28;20404;-49
2021/09/16 15:41:02;;;;;;;5.13;4.20;;;;;;;;;;4969502;28;20469;-59
2021/09/16 15:43:28;;;;;;;4.90;4.07;;;;;;;;;;4967072;28;20915;-55
2021/09/16 15:45:54;;;;;;;4.78;4.00;;;;;;;;;;4967266;28;20406;-50
2021/09/16 15:48:21;;;;;;;4.82;4.30;;;;;;;;;;4969826;28;20372;-50
2021/09/16 15:50:49;;;;;;;4.68;4.25;;;;;;;;;;4969536;28;20392;-49
2021/09/16 15:53:15;;;;;;;4.88;4.20;;;;;;;;;;4947113;29;20402;-53
2021/09/16 15:55:42;;;;;;;4.70;4.20;;;;;;;;;;4959535;28;20531;-49
2021/09/16 15:58:10;;;;;;;5.20;4.57;;;;;;;;;;4969016;28;20410;-53
2021/09/16 16:00:36;;;;;;;5.03;4.40;;;;;;;;;;4969914;28;20400;-49
2021/09/16 16:03:02;;;;;;;4.90;4.40;;;;;;;;;;4966365;28;20919;-53
2021/09/16 16:05:29;;;;;;;4.82;4.32;;;;;;;;;;4932917;28;20590;-52
2021/09/16 16:07:55;;;;;;;5.25;4.75;;;;;;;;;;4969611;28;20391;-49
2021/09/16 16:10:21;;;;;;;5.28;4.57;;;;;;;;;;4969551;28;20384;-49
2021/09/16 16:12:47;;;;;;;5.35;4.65;;;;;;;;;;4951262;28;20479;-49
2021/09/16 16:15:13;;;;;;;5.10;4.60;;;;;;;;;;4948418;28;20495;-50
2021/09/16 16:17:40;;;;;;;5.80;5.20;;;;;;;;;;4940182;29;20410;-48
2021/09/16 16:20:06;;;;;;;5.50;4.60;;;;;;;;;;4950894;28;20404;-49
2021/09/16 16:22:33;;;;;;;5.38;4.78;;;;;;;;;;4967748;28;20452;-50
2021/09/16 16:25:00;;;;;;;5.60;5.00;;;;;;;;;;4963307;28;20396;-50
2021/09/16 16:27:28;;;;;;;5.50;4.70;;;;;;;;;;4968802;28;20454;-50
2021/09/16 16:29:54;;;;;;;5.57;5.07;;;;;;;;;;4951877;28;20380;-49
2021/09/16 16:32:20;;;;;;;5.68;4.95;;;;;;;;;;4966932;28;20418;-53
2021/09/16 16:34:47;;;;;;;5.20;4.70;;;;;;;;;;4968001;28;20423;-50
2021/09/16 16:37:13;;;;;;;5.35;4.85;;;;;;;;;;4957766;28;20400;-50
2021/09/16 16:39:41;;;;;;;5.45;4.95;;;;;;;;;;4971341;28;20740;-52
2021/09/16 16:42:07;;;;;;;5.47;4.97;;;;;;;;;;4954214;28;20418;-52
2021/09/16 16:44:33;;;;;;;6.20;5.13;;;;;;;;;;4972874;28;20399;-52
2021/09/16 16:46:59;;;;;;;6.15;5.10;;;;;;;;;;4954464;28;20405;-51
2021/09/16 16:49:26;;;;;;;5.60;5.00;;;;;;;;;;4972093;28;20407;-50
2021/09/16 16:51:52;;;;;;;5.50;4.83;;;;;;;;;;4972430;28;20761;-50
2021/09/16 16:54:21;;;;;;;5.40;4.90;;;;;;;;;;4971544;28;20479;-53
2021/09/16 16:56:47;;;;;;;5.50;5.00;;;;;;;;;;4953964;28;20432;-49
2021/09/16 16:59:16;;;;;;;5.70;4.93;;;;;;;;;;4971711;28;20404;-49
2021/09/16 17:01:42;;;;;;;5.90;5.13;;;;;;;;;;4953909;28;20423;-49
2021/09/16 17:04:09;;;;;;;5.80;5.20;;;;;;;;;;4970918;28;20483;-53
2021/09/16 17:06:35;;;;;;;6.18;5.57;;;;;;;;;;4941899;28;20438;-49
2021/09/16 17:09:01;;;;;;;6.10;5.40;;;;;;;;;;4970618;28;20722;-49
2021/09/16 17:11:27;;;;;;;5.60;5.10;;;;;;;;;;4970709;28;20478;-50
2021/09/16 17:13:53;;;;;;;6.72;5.30;;;;;;;;;;4951876;28;20447;-49
2021/09/16 17:16:19;;;;;;;5.40;4.90;;;;;;;;;;4968928;28;20432;-54
2021/09/16 17:18:46;;;;;;;6.53;5.10;;;;;;;;;;4970545;28;20507;-48
2021/09/16 17:21:12;;;;;;;6.03;5.43;;;;;;;;;;4971683;28;20409;-50
2021/09/16 17:23:38;;;;;;;6.18;5.57;;;;;;;;;;4970044;28;20405;-52
2021/09/16 17:26:04;;;;;;;6.25;5.20;;;;;;;;;;4971869;28;20906;-50
2021/09/16 17:28:30;;;;;;;5.50;4.82;;;;;;;;;;4939410;28;20431;-49
2021/09/16 17:30:56;;;;;;;5.47;4.93;;;;;;;;;;4971805;28;20383;-49
2021/09/16 17:33:22;;;;;;;5.40;4.80;;;;;;;;;;4952400;28;20404;-50
2021/09/16 17:35:48;;;;;;;5.30;4.80;;;;;;;;;;4970126;28;20428;-49
2021/09/16 17:38:15;;;;;;;5.60;4.88;;;;;;;;;;4970786;28;20391;-47
2021/09/16 17:40:42;;;;;;;5.05;4.55;;;;;;;;;;4971697;28;20395;-49
2021/09/16 17:43:08;;;;;;;5.63;4.80;;;;;;;;;;4953654;28;20573;-51
2021/09/16 17:45:34;;;;;;;5.20;4.70;;;;;;;;;;4953779;28;20467;-52
2021/09/16 17:48:00;;;;;;;5.03;4.50;;;;;;;;;;4952826;28;20392;-52
2021/09/16 17:50:26;;;;;;;5.97;4.53;;;;;;;;;;4969518;28;20431;-49
2021/09/16 17:52:53;;;;;;;5.78;4.60;;;;;;;;;;4952973;28;20908;-52
2021/09/16 17:55:21;;;;;;;4.90;4.40;;;;;;;;;;4953815;28;20424;-50
2021/09/16 17:57:47;;;;;;;4.93;4.18;;;;;;;;;;4953026;28;20506;-50
2021/09/16 18:00:14;;;;;;;6.03;4.35;;;;;;;;;;4940680;28;20495;-51
2021/09/16 18:02:40;;;;;;;4.95;4.30;;;;;;;;;;4969577;28;20434;-49
2021/09/16 18:05:06;;;;;;;5.25;4.38;;;;;;;;;;4969238;28;20854;-49
2021/09/16 18:07:33;;;;;;;4.80;4.30;;;;;;;;;;4969806;28;20558;-52
2021/09/16 18:09:59;;;;;;;5.00;4.30;;;;;;;;;;4971259;28;20384;-49
2021/09/16 18:12:25;;;;;;;6.50;5.80;;;;;;;;;;4960491;28;20455;-50
2021/09/16 18:14:51;;;;;;;6.72;5.65;;;;;;;;;;4966766;28;20406;-50
2021/09/16 18:17:17;;;;;;;6.30;5.30;;;;;;;;;;4970131;28;20408;-49
2021/09/16 18:19:44;;;;;;;6.75;5.07;;;;;;;;;;4970102;28;20440;-48
2021/09/16 18:22:10;;;;;;;7.80;5.85;;;;;;;;;;4971173;28;20482;-47
2021/09/16 18:24:36;;;;;;;6.97;5.78;;;;;;;;;;4952801;28;20996;-47
2021/09/16 18:27:02;;;;;;;6.50;5.63;;;;;;;;;;4970256;28;20400;-47
2021/09/16 18:29:29;;;;;;;7.10;5.45;;;;;;;;;;4951764;28;20906;-49
2021/09/16 18:31:57;;;;;;;7.03;5.22;;;;;;;;;;4970997;28;20385;-47
2021/09/16 18:34:24;;;;;;;7.55;5.70;;;;;;;;;;4951831;28;20400;-46
2021/09/16 18:36:50;;;;;;;12.57;9.77;;;;;;;;;;4952255;28;20446;-54
2021/09/16 18:39:21;;;;;;;31.67;25.17;;;;;;;;;;4967830;28;20463;-55
2021/09/16 18:41:47;;;;;;;22.13;17.58;;;;;;;;;;4964141;28;20410;-53
2021/09/16 18:44:13;;;;;;;18.25;14.50;;;;;;;;;;4969787;28;20411;-57
2021/09/16 18:46:39;;;;;;;13.77;11.13;;;;;;;;;;4969763;28;20388;-52
2021/09/16 18:49:06;;;;;;;11.88;9.43;;;;;;;;;;4969271;28;20391;-56
2021/09/16 18:51:32;;;;;;;9.95;8.32;;;;;;;;;;4969546;28;20435;-50
2021/09/16 18:53:58;;;;;;;7.35;6.47;;;;;;;;;;4970224;28;20388;-54
2021/09/16 18:56:24;;;;;;;7.50;6.28;;;;;;;;;;4969263;28;20972;-50
2021/09/16 18:58:51;;;;;;;6.60;5.90;;;;;;;;;;4970229;28;20535;-54
2021/09/16 19:01:17;;;;;;;6.43;5.40;;;;;;;;;;4968997;28;20394;-54
2021/09/16 19:03:43;;;;;;;5.85;5.25;;;;;;;;;;4952377;28;20535;-54
2021/09/16 19:06:10;;;;;;;5.70;4.82;;;;;;;;;;4969630;28;20563;-52
2021/09/16 19:08:36;;;;;;;5.60;4.82;;;;;;;;;;4970268;28;20489;-54
2021/09/16 19:11:03;;;;;;;5.85;4.65;;;;;;;;;;4952323;28;20939;-53
2021/09/16 19:13:30;;;;;;;5.68;4.78;;;;;;;;;;4952146;28;20431;-52
2021/09/16 19:15:58;;;;;;;5.82;4.82;;;;;;;;;;4951351;28;20471;-54
2021/09/16 19:18:27;;;;;;;6.50;5.25;;;;;;;;;;4969830;28;20380;-54
2021/09/16 19:20:59;;;;;;;5.55;5.00;;;;;;;;;;4969169;28;20395;-55
2021/09/16 19:23:28;;;;;;;5.30;4.78;;;;;;;;;;4970263;28;20380;-56
2021/09/16 19:26:00;;;;;;;5.90;5.30;;;;;;;;;;4951692;28;20396;-54
2021/09/16 19:28:32;;;;;;;6.87;4.87;;;;;;;;;;4957024;28;20392;-54
2021/09/16 19:30:58;;;;;;;5.30;4.50;;;;;;;;;;4951670;28;20396;-53
2021/09/16 19:33:33;;;;;;;5.43;4.75;;;;;;;;;;4969791;28;20432;-51
2021/09/16 19:36:01;;;;;;;5.43;4.90;;;;;;;;;;4968909;28;20432;-54
2021/09/16 19:38:30;;;;;;;5.53;4.72;;;;;;;;;;4952190;28;20471;-53
2021/09/16 19:40:56;;;;;;;5.03;4.47;;;;;;;;;;4951688;28;20830;-53
2021/09/16 19:43:25;;;;;;;5.00;4.47;;;;;;;;;;4969009;28;20511;-54
2021/09/16 19:45:54;;;;;;;5.72;5.07;;;;;;;;;;4969326;28;20841;-55
2021/09/16 19:48:26;;;;;;;6.20;4.63;;;;;;;;;;4968385;28;20403;-51
2021/09/16 19:50:55;;;;;;;5.20;4.35;;;;;;;;;;4951458;28;20868;-54
2021/09/16 19:53:21;;;;;;;5.65;4.32;;;;;;;;;;4969060;28;20397;-50
2021/09/16 19:55:47;;;;;;;5.35;4.55;;;;;;;;;;4968244;28;20494;-50
2021/09/16 19:58:16;;;;;;;5.85;4.53;;;;;;;;;;4962361;28;20714;-51
2021/09/16 20:00:45;;;;;;;5.05;4.30;;;;;;;;;;4958790;28;20384;-51
2021/09/16 20:03:11;;;;;;;4.72;4.30;;;;;;;;;;4951606;28;20423;-53
2021/09/16 20:05:40;;;;;;;4.65;4.05;;;;;;;;;;4969922;28;20380;-53
2021/09/16 20:08:06;;;;;;;5.30;4.10;;;;;;;;;;4952005;28;20424;-52
2021/09/16 20:10:33;;;;;;;4.68;4.18;;;;;;;;;;4969162;28;20451;-55
2021/09/16 20:12:59;;;;;;;4.30;3.90;;;;;;;;;;4952024;28;20393;-54
2021/09/16 20:15:25;;;;;;;4.53;3.88;;;;;;;;;;4972775;28;20439;-52
2021/09/16 20:17:53;;;;;;;4.80;3.72;;;;;;;;;;4973207;28;20875;-48
2021/09/16 20:20:19;;;;;;;4.38;3.70;;;;;;;;;;4973316;28;20380;-50
2021/09/16 20:22:48;;;;;;;4.57;3.60;;;;;;;;;;4972978;28;20884;-48
2021/09/16 20:25:15;;;;;;;4.95;3.53;;;;;;;;;;4973924;28;20888;-48
2021/09/16 20:27:42;;;;;;;4.95;3.20;;;;;;;;;;4972939;28;20833;-52
2021/09/16 20:30:12;;;;;;;4.00;3.38;;;;;;;;;;4955050;28;20877;-50
2021/09/16 20:32:38;;;;;;;4.38;3.42;;;;;;;;;;4954714;28;20419;-50
2021/09/16 20:35:07;;;;;;;4.10;3.42;;;;;;;;;;4971066;28;20396;-54
2021/09/16 20:37:35;;;;;;;4.43;3.40;;;;;;;;;;4970058;28;20535;-50
2021/09/16 20:40:02;;;;;;;3.75;2.90;;;;;;;;;;4972767;28;20381;-54
2021/09/16 20:42:28;;;;;;;5.30;2.90;;;;;;;;;;4954341;28;20391;-58
2021/09/16 20:44:54;;;;;;;5.00;3.10;;;;;;;;;;4973723;28;20395;-52
2021/09/16 20:47:20;;;;;;;5.03;2.92;;;;;;;;;;4973066;28;20504;-54
2021/09/16 20:49:46;;;;;;;4.68;2.95;;;;;;;;;;4973092;28;20422;-55
2021/09/16 20:52:13;;;;;;;4.45;2.92;;;;;;;;;;4973362;28;20471;-53
2021/09/16 20:54:39;;;;;;;4.50;2.63;;;;;;;;;;4960280;28;20388;-50
2021/09/16 20:57:08;;;;;;;3.83;2.50;;;;;;;;;;4957544;28;20458;-49
2021/09/16 20:59:35;;;;;;;4.50;2.97;;;;;;;;;;4955517;28;20384;-53
2021/09/16 21:02:01;;;;;;;4.22;2.72;;;;;;;;;;4954672;28;20431;-55
2021/09/16 21:04:30;;;;;;;3.90;2.97;;;;;;;;;;4972705;28;20369;-52
2021/09/16 21:06:56;;;;;;;3.50;2.67;;;;;;;;;;4972473;28;20383;-53
